createdAt,value
2023-04-26T00:00:53.574Z,48.35
2023-04-26T00:03:20.877Z,48.24
2023-04-26T00:05:49.040Z,48.27
2023-04-26T00:08:16.267Z,48.00
2023-04-26T00:10:43.468Z,48.12
2023-04-26T00:13:11.105Z,47.68
2023-04-26T00:15:38.305Z,47.52
2023-04-26T00:18:06.068Z,47.67
2023-04-26T00:20:33.235Z,47.62
2023-04-26T00:25:27.394Z,47.71
2023-04-26T00:27:54.464Z,47.86
2023-04-26T00:30:22.519Z,48.37
2023-04-26T00:32:49.945Z,48.47
2023-04-26T00:35:17.201Z,48.71
2023-04-26T00:37:44.781Z,49.01
2023-04-26T00:40:13.065Z,49.27
2023-04-26T00:42:40.724Z,49.08
2023-04-26T00:45:08.710Z,49.16
2023-04-26T00:47:36.504Z,49.70
2023-04-26T00:50:04.779Z,49.76
2023-04-26T00:52:32.384Z,49.65
2023-04-26T00:54:59.491Z,49.66
2023-04-26T00:57:26.816Z,50.19
2023-04-26T00:59:53.940Z,49.86
2023-04-26T01:02:21.703Z,49.95
2023-04-26T01:04:49.149Z,50.09
2023-04-26T01:07:17.374Z,49.93
2023-04-26T01:09:44.788Z,50.29
2023-04-26T01:12:13.302Z,50.60
2023-04-26T01:14:41.144Z,51.10
2023-04-26T01:17:08.374Z,51.04
2023-04-26T01:19:37.615Z,50.95
2023-04-26T01:22:05.088Z,50.76
2023-04-26T01:24:33.494Z,51.15
2023-04-26T01:27:01.780Z,50.91
2023-04-26T01:29:29.287Z,51.28
2023-04-26T01:31:57.267Z,51.31
2023-04-26T01:34:28.594Z,50.83
2023-04-26T01:36:55.934Z,50.41
2023-04-26T01:39:23.285Z,50.54
2023-04-26T01:41:50.686Z,51.00
2023-04-26T01:44:17.899Z,50.90
2023-04-26T01:46:45.128Z,50.82
2023-04-26T01:49:13.127Z,50.53
2023-04-26T01:51:40.254Z,50.23
2023-04-26T01:54:07.797Z,49.95
2023-04-26T01:56:36.327Z,50.19
2023-04-26T01:59:03.464Z,50.10
2023-04-26T02:01:31.521Z,49.84
2023-04-26T02:03:58.805Z,49.94
2023-04-26T02:06:26.493Z,50.13
2023-04-26T02:08:54.330Z,49.94
2023-04-26T02:11:21.608Z,49.34
2023-04-26T02:13:48.774Z,49.79
2023-04-26T02:16:16.981Z,49.76
2023-04-26T02:18:45.829Z,49.62
2023-04-26T02:21:12.998Z,49.63
2023-04-26T02:23:40.113Z,50.09
2023-04-26T02:26:09.229Z,50.05
2023-04-26T02:28:36.829Z,49.67
2023-04-26T02:31:04.105Z,49.52
2023-04-26T02:33:31.409Z,49.93
2023-04-26T02:35:59.375Z,49.61
2023-04-26T02:38:27.400Z,50.70
2023-04-26T02:41:02.800Z,50.27
2023-04-26T02:43:31.101Z,49.63
2023-04-26T02:46:00.958Z,50.51
2023-04-26T02:48:28.116Z,50.20
2023-04-26T02:50:55.243Z,50.00
2023-04-26T02:53:22.362Z,50.59
2023-04-26T02:55:49.559Z,50.78
2023-04-26T02:58:17.483Z,50.68
2023-04-26T03:00:48.482Z,51.04
2023-04-26T03:03:16.768Z,51.21
2023-04-26T03:05:46.252Z,51.01
2023-04-26T03:08:13.590Z,50.83
2023-04-26T03:10:40.723Z,51.21
2023-04-26T03:13:08.171Z,50.99
2023-04-26T03:15:36.087Z,50.88
2023-04-26T03:18:03.547Z,51.28
2023-04-26T03:20:31.003Z,50.88
2023-04-26T03:22:58.241Z,51.28
2023-04-26T03:25:26.336Z,51.14
2023-04-26T03:27:54.601Z,51.38
2023-04-26T03:30:21.950Z,51.33
2023-04-26T03:32:49.690Z,51.28
2023-04-26T03:35:17.265Z,51.52
2023-04-26T03:37:45.122Z,51.60
2023-04-26T03:40:13.935Z,51.75
2023-04-26T03:42:40.994Z,51.74
2023-04-26T03:45:08.801Z,51.83
2023-04-26T03:47:35.945Z,51.99
2023-04-26T03:50:03.456Z,51.92
2023-04-26T03:52:31.017Z,52.32
2023-04-26T03:54:58.302Z,52.80
2023-04-26T03:57:25.724Z,52.63
2023-04-26T03:59:52.853Z,52.55
2023-04-26T04:02:21.394Z,51.98
2023-04-26T04:04:48.680Z,51.92
2023-04-26T04:07:16.631Z,52.06
2023-04-26T04:09:43.841Z,52.08
2023-04-26T04:12:10.908Z,52.14
2023-04-26T04:14:41.893Z,51.82
2023-04-26T04:17:09.180Z,51.57
2023-04-26T04:19:37.704Z,51.53
2023-04-26T04:22:06.203Z,52.12
2023-04-26T04:24:34.653Z,51.54
2023-04-26T04:27:01.948Z,52.07
2023-04-26T04:29:29.797Z,52.07
2023-04-26T04:31:57.284Z,52.19
2023-04-26T04:34:24.747Z,51.71
2023-04-26T04:36:52.084Z,51.56
2023-04-26T04:39:19.752Z,51.42
2023-04-26T04:41:52.285Z,51.25
2023-04-26T04:44:19.899Z,51.10
2023-04-26T04:46:48.253Z,51.09
2023-04-26T04:49:16.115Z,50.75
2023-04-26T04:51:43.488Z,50.54
2023-04-26T04:54:14.912Z,50.52
2023-04-26T04:56:43.741Z,50.49
2023-04-26T04:59:12.897Z,50.13
2023-04-26T05:01:40.390Z,49.45
2023-04-26T05:04:12.202Z,49.47
2023-04-26T05:06:39.620Z,49.50
2023-04-26T05:09:07.709Z,49.29
2023-04-26T05:11:36.276Z,49.70
2023-04-26T05:14:04.743Z,49.59
2023-04-26T05:16:32.117Z,49.61
2023-04-26T05:19:01.104Z,49.36
2023-04-26T05:21:28.721Z,49.86
2023-04-26T05:23:55.917Z,49.68
2023-04-26T05:26:23.572Z,49.43
2023-04-26T05:28:55.234Z,49.22
2023-04-26T05:31:30.918Z,49.51
2023-04-26T05:34:30.443Z,49.14
2023-04-26T05:36:59.191Z,48.83
2023-04-26T05:39:27.725Z,47.45
2023-04-26T05:41:54.925Z,48.07
2023-04-26T05:44:22.313Z,48.27
2023-04-26T05:46:49.818Z,48.38
2023-04-26T05:49:16.874Z,47.88
2023-04-26T05:51:44.666Z,47.10
2023-04-26T05:54:12.041Z,47.92
2023-04-26T05:56:40.170Z,48.56
2023-04-26T05:59:08.542Z,48.16
2023-04-26T06:01:35.805Z,48.52
2023-04-26T06:04:03.929Z,47.37
2023-04-26T06:06:40.859Z,46.94
2023-04-26T06:09:08.703Z,47.37
2023-04-26T06:11:37.518Z,46.31
2023-04-26T06:14:04.822Z,46.31
2023-04-26T06:16:31.980Z,46.21
2023-04-26T06:18:59.104Z,46.29
2023-04-26T06:21:29.601Z,46.25
2023-04-26T06:23:56.802Z,46.81
2023-04-26T06:26:27.434Z,46.90
2023-04-26T06:28:54.516Z,46.46
2023-04-26T06:31:22.854Z,45.96
2023-04-26T06:33:50.800Z,45.82
2023-04-26T06:36:18.463Z,46.21
2023-04-26T06:38:45.584Z,46.68
2023-04-26T06:41:13.627Z,46.08
2023-04-26T06:43:40.709Z,45.20
2023-04-26T06:46:19.338Z,45.38
2023-04-26T06:48:56.787Z,44.52
2023-04-26T06:51:25.440Z,43.78
2023-04-26T06:53:53.059Z,42.48
2023-04-26T06:56:20.426Z,42.23
2023-04-26T06:59:02.017Z,42.37
2023-04-26T07:01:30.955Z,42.99
2023-04-26T07:03:58.610Z,42.79
2023-04-26T07:06:27.056Z,42.40
2023-04-26T07:08:54.427Z,42.63
2023-04-26T07:11:23.963Z,41.67
2023-04-26T07:13:52.985Z,41.20
2023-04-26T07:16:20.284Z,40.81
2023-04-26T07:18:48.477Z,41.31
2023-04-26T07:21:16.350Z,42.67
2023-04-26T07:23:43.608Z,41.94
2023-04-26T07:26:13.978Z,41.46
2023-04-26T07:28:41.102Z,40.72
2023-04-26T07:31:09.540Z,40.35
2023-04-26T07:33:38.103Z,40.08
2023-04-26T07:36:05.877Z,39.93
2023-04-26T07:38:32.947Z,41.15
2023-04-26T07:41:01.312Z,40.13
2023-04-26T07:43:29.913Z,38.87
2023-04-26T07:46:03.057Z,38.35
2023-04-26T07:48:30.241Z,37.94
2023-04-26T07:50:57.406Z,37.56
2023-04-26T07:53:24.531Z,37.71
2023-04-26T07:55:52.508Z,39.12
2023-04-26T07:58:19.965Z,37.80
2023-04-26T08:00:47.021Z,37.15
2023-04-26T08:03:18.265Z,37.20
2023-04-26T08:05:47.091Z,37.11
2023-04-26T08:08:15.429Z,35.82
2023-04-26T08:10:43.377Z,36.17
2023-04-26T08:13:10.632Z,36.49
2023-04-26T08:15:38.037Z,36.75
2023-04-26T08:18:05.330Z,37.00
2023-04-26T08:20:32.861Z,35.63
2023-04-26T08:23:00.511Z,34.98
2023-04-26T08:25:28.416Z,35.11
2023-04-26T08:27:55.585Z,35.81
2023-04-26T08:30:25.957Z,35.57
2023-04-26T08:32:53.155Z,35.70
2023-04-26T08:35:21.696Z,35.84
2023-04-26T08:37:49.091Z,36.16
2023-04-26T08:40:25.327Z,35.65
2023-04-26T08:42:53.758Z,36.03
2023-04-26T08:45:23.341Z,36.23
2023-04-26T08:47:53.764Z,36.08
2023-04-26T08:50:23.722Z,35.55
2023-04-26T08:52:52.542Z,34.94
2023-04-26T08:55:21.927Z,35.79
2023-04-26T08:57:50.730Z,36.39
2023-04-26T09:00:19.472Z,36.28
2023-04-26T09:02:50.145Z,35.88
2023-04-26T09:05:18.191Z,35.85
2023-04-26T09:07:46.972Z,35.00
2023-04-26T09:10:21.657Z,35.63
2023-04-26T09:12:56.013Z,34.49
2023-04-26T09:15:26.638Z,34.20
2023-04-26T09:17:54.590Z,33.93
2023-04-26T09:20:29.228Z,34.02
2023-04-26T09:23:10.432Z,33.65
2023-04-26T09:25:38.206Z,34.21
2023-04-26T09:28:23.747Z,35.29
2023-04-26T09:30:51.235Z,35.23
2023-04-26T09:33:19.635Z,35.21
2023-04-26T09:35:46.866Z,35.65
2023-04-26T09:38:16.907Z,34.87
2023-04-26T09:40:50.167Z,34.80
2023-04-26T09:43:22.494Z,34.20
2023-04-26T09:45:59.119Z,33.96
2023-04-26T09:48:30.705Z,34.93
2023-04-26T09:51:04.018Z,35.32
2023-04-26T09:53:38.839Z,34.96
2023-04-26T09:56:20.838Z,32.36
2023-04-26T09:58:47.803Z,32.60
2023-04-26T10:01:18.040Z,33.51
2023-04-26T10:03:46.762Z,33.53
2023-04-26T10:06:14.377Z,32.61
2023-04-26T10:08:42.175Z,32.47
2023-04-26T10:11:13.048Z,32.59
2023-04-26T10:13:41.689Z,31.76
2023-04-26T10:16:12.386Z,33.40
2023-04-26T10:18:39.596Z,34.40
2023-04-26T10:21:29.726Z,33.91
2023-04-26T10:23:58.144Z,33.84
2023-04-26T10:26:56.757Z,33.59
2023-04-26T10:29:26.070Z,32.77
2023-04-26T10:32:02.470Z,31.09
2023-04-26T10:34:31.418Z,31.30
2023-04-26T10:37:11.952Z,31.59
2023-04-26T10:39:44.023Z,31.65
2023-04-26T10:42:32.347Z,31.35
2023-04-26T10:45:00.596Z,31.38
2023-04-26T10:47:37.387Z,30.84
2023-04-26T10:50:11.747Z,31.01
2023-04-26T10:53:02.018Z,30.29
2023-04-26T10:55:42.392Z,30.73
2023-04-26T10:58:33.801Z,31.73
2023-04-26T11:01:21.541Z,31.56
2023-04-26T11:03:58.730Z,30.91
2023-04-26T11:06:29.810Z,30.13
2023-04-26T11:08:56.852Z,30.17
2023-04-26T11:11:28.895Z,30.11
2023-04-26T11:13:56.659Z,30.03
2023-04-26T11:16:26.836Z,31.45
2023-04-26T11:18:55.797Z,31.04
2023-04-26T11:21:22.942Z,30.93
2023-04-26T11:23:55.275Z,30.06
2023-04-26T11:26:22.709Z,29.75
2023-04-26T11:28:49.835Z,28.38
2023-04-26T11:31:19.528Z,28.19
2023-04-26T11:33:49.199Z,27.30
2023-04-26T11:36:19.641Z,27.90
2023-04-26T11:38:46.871Z,29.30
2023-04-26T11:41:14.039Z,30.25
2023-04-26T11:43:41.906Z,31.11
2023-04-26T11:46:10.156Z,31.35
2023-04-26T11:48:39.173Z,31.34
2023-04-26T11:51:08.618Z,32.34
2023-04-26T11:53:43.273Z,33.27
2023-04-26T11:56:22.018Z,32.63
2023-04-26T11:58:52.016Z,32.41
2023-04-26T12:01:27.784Z,32.29
2023-04-26T12:03:58.048Z,31.69
2023-04-26T12:06:45.852Z,30.38
2023-04-26T12:09:13.641Z,29.17
2023-04-26T12:11:41.454Z,28.32
2023-04-26T12:14:10.145Z,28.89
2023-04-26T12:16:37.898Z,29.55
2023-04-26T12:19:07.292Z,31.36
2023-04-26T12:21:44.733Z,32.42
2023-04-26T12:24:30.526Z,32.90
2023-04-26T12:26:58.666Z,33.01
2023-04-26T12:29:28.901Z,32.87
2023-04-26T12:31:56.781Z,31.74
2023-04-26T12:34:24.437Z,30.59
2023-04-26T12:36:51.619Z,29.95
2023-04-26T12:39:18.879Z,26.38
2023-04-26T12:41:49.446Z,27.43
2023-04-26T12:44:17.286Z,27.62
2023-04-26T12:46:46.249Z,28.73
2023-04-26T12:49:14.713Z,29.80
2023-04-26T12:51:41.931Z,29.82
2023-04-26T12:54:09.265Z,30.75
2023-04-26T12:56:40.763Z,30.02
2023-04-26T12:59:07.888Z,30.01
2023-04-26T13:01:35.148Z,29.94
2023-04-26T13:04:04.826Z,29.30
2023-04-26T13:06:32.516Z,27.77
2023-04-26T13:08:59.922Z,27.83
2023-04-26T13:11:27.310Z,27.63
2023-04-26T13:13:54.976Z,27.46
2023-04-26T13:16:22.167Z,27.81
2023-04-26T13:18:49.328Z,27.64
2023-04-26T13:21:16.636Z,27.45
2023-04-26T13:23:43.876Z,28.02
2023-04-26T13:26:11.320Z,26.37
2023-04-26T13:28:38.403Z,25.92
2023-04-26T13:31:06.560Z,25.19
2023-04-26T13:33:33.811Z,26.06
2023-04-26T13:36:01.137Z,28.34
2023-04-26T13:38:28.666Z,29.33
2023-04-26T13:40:57.371Z,29.66
2023-04-26T13:43:27.647Z,30.71
2023-04-26T13:45:57.650Z,30.59
2023-04-26T13:48:25.133Z,30.73
2023-04-26T13:50:52.568Z,31.35
2023-04-26T13:53:19.975Z,30.76
2023-04-26T13:55:49.804Z,30.67
2023-04-26T13:58:17.613Z,30.09
2023-04-26T14:00:45.062Z,29.51
2023-04-26T14:03:12.585Z,29.27
2023-04-26T14:05:39.971Z,27.87
2023-04-26T14:08:08.299Z,26.82
2023-04-26T14:10:35.694Z,26.82
2023-04-26T14:13:03.807Z,26.82
2023-04-26T14:15:31.420Z,27.54
2023-04-26T14:17:58.993Z,28.17
2023-04-26T14:20:26.314Z,28.84
2023-04-26T14:22:53.541Z,29.76
2023-04-26T14:25:22.589Z,30.67
2023-04-26T14:27:51.857Z,30.24
2023-04-26T14:30:20.954Z,30.94
2023-04-26T14:32:48.345Z,30.46
2023-04-26T14:35:15.856Z,29.82
2023-04-26T14:37:43.038Z,29.92
2023-04-26T14:40:11.741Z,30.45
2023-04-26T14:42:45.824Z,30.69
2023-04-26T14:45:13.598Z,30.80
2023-04-26T14:47:40.981Z,31.17
2023-04-26T14:50:10.187Z,30.75
2023-04-26T14:52:37.557Z,30.75
2023-04-26T14:55:05.618Z,30.81
2023-04-26T14:57:35.378Z,30.59
2023-04-26T15:00:09.315Z,29.91
2023-04-26T15:02:36.597Z,30.87
2023-04-26T15:05:03.968Z,30.69
2023-04-26T15:07:32.882Z,31.08
2023-04-26T15:10:01.574Z,31.27
2023-04-26T15:12:29.008Z,31.42
2023-04-26T15:14:56.262Z,31.70
2023-04-26T15:17:23.636Z,31.79
2023-04-26T15:19:51.004Z,31.88
2023-04-26T15:22:18.244Z,32.28
2023-04-26T15:24:45.845Z,32.44
2023-04-26T15:27:12.954Z,32.75
2023-04-26T15:29:40.127Z,32.93
2023-04-26T15:32:07.192Z,32.70
2023-04-26T15:34:40.899Z,32.72
2023-04-26T15:37:08.033Z,32.68
2023-04-26T15:39:35.199Z,32.44
2023-04-26T15:42:02.581Z,32.18
2023-04-26T15:44:30.782Z,32.09
2023-04-26T15:46:58.002Z,31.90
2023-04-26T15:49:25.493Z,31.78
2023-04-26T15:51:52.546Z,31.54
2023-04-26T15:54:19.669Z,31.65
2023-04-26T15:56:47.132Z,31.74
2023-04-26T15:59:14.808Z,31.99
2023-04-26T16:01:42.026Z,32.76
2023-04-26T16:04:10.245Z,33.05
2023-04-26T16:06:37.921Z,33.15
2023-04-26T16:09:22.965Z,33.20
2023-04-26T16:11:51.712Z,33.45
2023-04-26T16:14:18.739Z,33.93
2023-04-26T16:16:46.280Z,34.20
2023-04-26T16:19:13.700Z,33.83
2023-04-26T16:21:41.183Z,33.91
2023-04-26T16:24:09.259Z,33.53
2023-04-26T16:26:36.597Z,32.86
2023-04-26T16:29:06.863Z,33.12
2023-04-26T16:31:34.648Z,32.84
2023-04-26T16:34:03.303Z,32.95
2023-04-26T16:36:31.627Z,32.81
2023-04-26T16:38:59.078Z,32.81
2023-04-26T16:41:27.548Z,32.55
2023-04-26T16:43:56.026Z,32.66
2023-04-26T16:46:23.503Z,33.08
2023-04-26T16:48:51.006Z,33.12
2023-04-26T16:51:18.082Z,33.15
2023-04-26T16:53:45.523Z,33.56
2023-04-26T16:56:12.677Z,33.98
2023-04-26T16:58:39.800Z,33.71
2023-04-26T17:01:07.023Z,34.24
2023-04-26T17:03:34.338Z,34.23
2023-04-26T17:06:01.721Z,33.51
2023-04-26T17:08:29.009Z,34.00
2023-04-26T17:10:56.443Z,34.14
2023-04-26T17:13:24.269Z,34.38
2023-04-26T17:15:51.543Z,34.56
2023-04-26T17:18:18.619Z,34.40
2023-04-26T17:20:45.907Z,34.69
2023-04-26T17:23:12.980Z,35.05
2023-04-26T17:25:40.030Z,34.63
2023-04-26T17:28:07.184Z,34.89
2023-04-26T17:30:34.329Z,35.21
2023-04-26T17:33:01.708Z,35.18
2023-04-26T17:35:28.849Z,35.23
2023-04-26T17:37:56.058Z,35.37
2023-04-26T17:40:23.214Z,35.77
2023-04-26T17:42:50.328Z,35.80
2023-04-26T17:45:17.707Z,35.34
2023-04-26T17:47:46.009Z,35.27
2023-04-26T17:50:13.480Z,35.45
2023-04-26T17:52:40.551Z,35.09
2023-04-26T17:55:10.095Z,35.38
2023-04-26T17:57:37.793Z,35.73
2023-04-26T18:00:10.250Z,35.83
2023-04-26T18:02:38.357Z,35.70
2023-04-26T18:05:08.599Z,35.61
2023-04-26T18:07:36.151Z,35.55
2023-04-26T18:10:04.248Z,36.05
2023-04-26T18:12:32.099Z,36.22
2023-04-26T18:14:59.410Z,36.02
2023-04-26T18:17:26.861Z,36.52
2023-04-26T18:19:54.094Z,36.90
2023-04-26T18:22:21.298Z,37.08
2023-04-26T18:24:48.425Z,37.01
2023-04-26T18:27:15.611Z,37.28
2023-04-26T18:29:42.802Z,37.26
2023-04-26T18:32:09.993Z,37.08
2023-04-26T18:34:37.162Z,37.20
2023-04-26T18:37:04.947Z,37.50
2023-04-26T18:39:32.230Z,37.87
2023-04-26T18:41:59.472Z,37.67
2023-04-26T18:44:26.937Z,37.75
2023-04-26T18:46:55.891Z,37.64
2023-04-26T18:49:23.914Z,38.07
2023-04-26T18:51:51.193Z,37.94
2023-04-26T18:54:18.324Z,37.93
2023-04-26T18:56:45.652Z,38.09
2023-04-26T18:59:13.037Z,38.05
2023-04-26T19:01:41.060Z,38.14
2023-04-26T19:04:09.279Z,38.08
2023-04-26T19:06:36.605Z,38.38
2023-04-26T19:09:06.128Z,38.51
2023-04-26T19:11:33.228Z,38.69
2023-04-26T19:14:00.462Z,38.62
2023-04-26T19:16:27.814Z,38.94
2023-04-26T19:18:55.225Z,38.98
2023-04-26T19:21:22.341Z,38.85
2023-04-26T19:23:49.570Z,38.77
2023-04-26T19:26:16.738Z,38.94
2023-04-26T19:28:43.958Z,38.93
2023-04-26T19:31:11.244Z,38.75
2023-04-26T19:33:38.466Z,38.46
2023-04-26T19:36:05.720Z,38.39
2023-04-26T19:38:33.042Z,38.21
2023-04-26T19:41:01.338Z,38.33
2023-04-26T19:43:28.487Z,38.68
2023-04-26T19:45:55.569Z,38.83
2023-04-26T19:48:22.696Z,38.73
2023-04-26T19:50:49.964Z,38.08
2023-04-26T19:53:17.089Z,38.43
2023-04-26T19:55:44.195Z,38.31
2023-04-26T19:58:11.603Z,38.69
2023-04-26T20:00:40.174Z,38.61
2023-04-26T20:03:07.764Z,38.37
2023-04-26T20:05:35.095Z,38.38
2023-04-26T20:08:02.635Z,38.33
2023-04-26T20:10:34.452Z,38.25
2023-04-26T20:13:02.586Z,38.18
2023-04-26T20:15:32.227Z,38.56
2023-04-26T20:18:02.257Z,38.62
2023-04-26T20:20:29.555Z,38.59
2023-04-26T20:22:56.881Z,38.90
2023-04-26T20:25:24.014Z,39.04
2023-04-26T20:27:51.126Z,39.17
2023-04-26T20:30:18.215Z,39.07
2023-04-26T20:32:45.500Z,39.45
2023-04-26T20:35:13.716Z,39.74
2023-04-26T20:37:40.898Z,40.08
2023-04-26T20:40:09.304Z,40.84
2023-04-26T20:42:36.447Z,40.75
2023-04-26T20:45:04.150Z,41.06
2023-04-26T20:47:31.351Z,41.09
2023-04-26T20:49:58.526Z,41.31
2023-04-26T20:52:26.189Z,41.40
2023-04-26T20:54:53.164Z,41.59
2023-04-26T20:57:20.360Z,41.71
2023-04-26T20:59:47.408Z,41.78
2023-04-26T21:02:14.612Z,42.76
2023-04-26T21:04:43.133Z,42.93
2023-04-26T21:07:11.005Z,42.96
2023-04-26T21:09:38.933Z,43.28
2023-04-26T21:12:06.834Z,43.57
2023-04-26T21:14:34.008Z,44.04
2023-04-26T21:17:01.506Z,43.86
2023-04-26T21:19:28.621Z,43.67
2023-04-26T21:21:55.741Z,44.21
2023-04-26T21:24:22.914Z,44.42
2023-04-26T21:26:50.367Z,44.72
2023-04-26T21:29:17.463Z,44.82
2023-04-26T21:31:44.636Z,44.72
2023-04-26T21:34:11.743Z,44.71
2023-04-26T21:36:38.748Z,44.72
2023-04-26T21:39:06.100Z,44.80
2023-04-26T21:41:33.111Z,44.68
2023-04-26T21:44:00.250Z,44.64
2023-04-26T21:46:27.397Z,44.96
2023-04-26T21:48:54.790Z,45.04
2023-04-26T21:51:22.008Z,44.91
2023-04-26T21:53:49.175Z,44.69
2023-04-26T21:56:16.534Z,44.93
2023-04-26T21:58:43.663Z,44.98
2023-04-26T22:01:13.467Z,45.09
2023-04-26T22:03:41.213Z,45.21
2023-04-26T22:06:09.877Z,45.39
2023-04-26T22:08:37.000Z,45.87
2023-04-26T22:11:04.476Z,45.91
2023-04-26T22:13:32.381Z,46.17
2023-04-26T22:15:59.608Z,46.36
2023-04-26T22:18:27.122Z,46.15
2023-04-26T22:20:54.366Z,46.44
2023-04-26T22:23:21.488Z,46.70
2023-04-26T22:25:48.570Z,46.50
2023-04-26T22:28:16.579Z,46.96
2023-04-26T22:30:43.733Z,47.06
2023-04-26T22:33:12.301Z,47.17
2023-04-26T22:35:39.910Z,46.97
2023-04-26T22:38:07.048Z,47.01
2023-04-26T22:40:35.750Z,46.95
2023-04-26T22:43:03.218Z,46.60
2023-04-26T22:45:30.300Z,46.47
2023-04-26T22:47:57.414Z,46.47
2023-04-26T22:50:24.926Z,46.59
2023-04-26T22:52:51.960Z,46.41
2023-04-26T22:55:19.200Z,46.62
2023-04-26T22:57:46.712Z,47.00
2023-04-26T23:00:14.786Z,47.26
2023-04-26T23:02:42.138Z,47.19
2023-04-26T23:05:10.406Z,46.95
2023-04-26T23:07:39.223Z,47.02
2023-04-26T23:10:07.219Z,47.00
2023-04-26T23:12:34.435Z,47.20
2023-04-26T23:15:01.992Z,46.86
2023-04-26T23:17:29.156Z,46.89
2023-04-26T23:19:56.542Z,46.68
2023-04-26T23:22:23.759Z,46.68
2023-04-26T23:24:51.578Z,46.77
2023-04-26T23:27:21.808Z,46.63
2023-04-26T23:29:51.082Z,47.33
2023-04-26T23:32:18.164Z,47.48
2023-04-26T23:34:45.488Z,47.37
2023-04-26T23:37:12.611Z,47.50
2023-04-26T23:39:39.680Z,47.74
2023-04-26T23:42:07.038Z,47.80
2023-04-26T23:44:34.369Z,48.08
2023-04-26T23:47:01.572Z,48.39
2023-04-26T23:49:28.806Z,48.46
2023-04-26T23:51:55.939Z,48.55
2023-04-26T23:54:23.043Z,48.51
2023-04-26T23:56:50.137Z,48.17
2023-04-26T23:59:17.244Z,48.76
